Ary, Kentucky
Current Conditions -  °F | °C
As of 4:53 PM on Tuesday 21 Oct 2014 (Local Time) from KJKL Reporting Station
Overcast Overcast  
Wind Chill: 52°   Ceiling: 4600
Heat Index: 52°   Visibility: 10mi
Dew Point: 39°   Wind: 7mph
Humidity: 61%   Direction: NA
Pressure: 30.05"   Gusts: NA
Location:  37.37°N, 83.15°W
Report Text: KJKL 212053Z AUTO VRB06KT 10SM OVC046 11/04 A3005 RMK AO2 SLP175 T01110039 53013
Loading
Personal Weather Stations






























Interactive Weather Map
Tropical Storm Tracking
New forecast layout! Learn more

10-Day Weather Forecast

Advertisements
Track Severe Weather on mobile